ATH weather

Eleftherios Venizelos International Airport
Athens, Attica, Greece

Public forecast

Using degrees Celsius for public forecast. Weather courtesy of forecast.io.

METAR (pilot weather report)

Retrieved 2017/03/29 08:50 UTC (24 minutes ago):

LGAV 290850Z 03013KT 9999 FEW025 15/04 Q1020 NOSIG

TAF (pilot weather forecast)

Retrieved 2017/03/29 06:12 UTC (3 hours ago):

TAF TAF LGAV 290500Z 2906/3006 03015KT 9999 FEW020 SCT070 TEMPO 2906/2915 03015G25KT PROB30 TEMPO 2910/2920 5000 RA SCT020 BKN070 BECMG 2918/2920 35010KT